CheckWX is a tool to help pilots better visualize weather data.  It is not intended as a substitute for an official pre-flight weather briefing.

15:30:49 UTC

KGNV TAF
Gainesville Regional Airport
Gainesville, Florida, USA
KGNV 171123Z 1712/1812 33006KT P6SM BKN250 FM172300 VRB03KT P6SM OVC250

Oct-17@
12:00 UTC

Oct-17 @ 12:00 UTC

Oct-17@
23:00 UTC

Oct-17 @ 23:00 UTC

KGNV 171123Z 1712/1812 33006KT P6SM BKN250
Wind
  • 330° at 6 KTS
Cloud Levels
  • Broken at 25,000' AGL

Oct-17@
23:00 UTC

Oct-17 @ 23:00 UTC

Oct-18@
12:00 UTC

Oct-18 @ 12:00 UTC

FM172300 VRB03KT P6SM OVC250

From

From Standard forecast or significant change

Wind
  • Variable at 3 KTS
Cloud Levels
  • Overcast at 25,000' AGL